sensor_id;sensor_type;location;lat;lon;timestamp;pressure;altitude;pressure_sealevel;temperature;humidity
26443;BME280;5563;52.296;6.806;2023-03-24T00:00:14;99826.88;;;10.70;88.60
26443;BME280;5563;52.296;6.806;2023-03-24T00:02:48;99824.34;;;10.69;88.62
26443;BME280;5563;52.296;6.806;2023-03-24T00:05:18;99814.38;;;10.71;88.51
26443;BME280;5563;52.296;6.806;2023-03-24T00:07:52;99822.06;;;10.74;88.67
26443;BME280;5563;52.296;6.806;2023-03-24T00:10:29;99820.53;;;10.71;88.92
26443;BME280;5563;52.296;6.806;2023-03-24T00:12:56;99811.94;;;10.77;89.10
26443;BME280;5563;52.296;6.806;2023-03-24T00:15:35;99809.44;;;10.76;88.93
26443;BME280;5563;52.296;6.806;2023-03-24T00:18:34;99808.59;;;10.75;88.92
26443;BME280;5563;52.296;6.806;2023-03-24T00:21:09;99802.28;;;10.76;89.03
26443;BME280;5563;52.296;6.806;2023-03-24T00:23:38;99796.66;;;10.79;89.24
26443;BME280;5563;52.296;6.806;2023-03-24T00:26:15;99791.31;;;10.79;89.16
26443;BME280;5563;52.296;6.806;2023-03-24T00:28:45;99779.56;;;10.72;89.35
26443;BME280;5563;52.296;6.806;2023-03-24T00:31:21;99802.50;;;10.83;88.87
26443;BME280;5563;52.296;6.806;2023-03-24T00:33:50;99799.16;;;10.81;89.26
26443;BME280;5563;52.296;6.806;2023-03-24T00:36:25;99787.38;;;10.83;89.43
26443;BME280;5563;52.296;6.806;2023-03-24T00:38:57;99774.84;;;10.84;89.71
26443;BME280;5563;52.296;6.806;2023-03-24T00:41:32;99772.88;;;10.86;89.77
26443;BME280;5563;52.296;6.806;2023-03-24T00:44:00;99776.38;;;10.86;89.69
26443;BME280;5563;52.296;6.806;2023-03-24T00:46:38;99767.91;;;10.91;89.66
26443;BME280;5563;52.296;6.806;2023-03-24T00:49:19;99770.59;;;10.91;89.48
26443;BME280;5563;52.296;6.806;2023-03-24T00:51:59;99769.78;;;10.91;89.57
26443;BME280;5563;52.296;6.806;2023-03-24T00:54:30;99753.34;;;10.85;89.53
26443;BME280;5563;52.296;6.806;2023-03-24T00:57:06;99747.22;;;10.85;89.58
26443;BME280;5563;52.296;6.806;2023-03-24T00:59:33;99740.59;;;10.89;89.92
26443;BME280;5563;52.296;6.806;2023-03-24T01:02:20;99745.34;;;10.85;90.07
26443;BME280;5563;52.296;6.806;2023-03-24T01:07:28;99708.88;;;10.86;89.90
26443;BME280;5563;52.296;6.806;2023-03-24T01:10:03;99723.59;;;10.90;90.04
26443;BME280;5563;52.296;6.806;2023-03-24T01:12:32;99731.97;;;10.95;90.00
26443;BME280;5563;52.296;6.806;2023-03-24T01:15:12;99723.81;;;10.97;89.84
26443;BME280;5563;52.296;6.806;2023-03-24T01:17:47;99711.16;;;10.99;90.13
26443;BME280;5563;52.296;6.806;2023-03-24T01:20:22;99695.63;;;10.94;89.84
26443;BME280;5563;52.296;6.806;2023-03-24T01:22:50;99708.50;;;10.99;90.34
26443;BME280;5563;52.296;6.806;2023-03-24T01:25:24;99712.00;;;10.99;90.24
26443;BME280;5563;52.296;6.806;2023-03-24T01:27:53;99703.47;;;10.96;90.36
26443;BME280;5563;52.296;6.806;2023-03-24T01:30:28;99695.47;;;10.96;90.48
26443;BME280;5563;52.296;6.806;2023-03-24T01:32:56;99680.91;;;10.90;90.68
26443;BME280;5563;52.296;6.806;2023-03-24T01:35:30;99691.50;;;11.00;90.34
26443;BME280;5563;52.296;6.806;2023-03-24T01:37:58;99686.84;;;11.02;90.55
26443;BME280;5563;52.296;6.806;2023-03-24T01:40:28;99673.75;;;11.08;90.33
26443;BME280;5563;52.296;6.806;2023-03-24T01:43:03;99677.38;;;11.07;90.25
26443;BME280;5563;52.296;6.806;2023-03-24T01:48:24;99670.91;;;11.10;90.44
26443;BME280;5563;52.296;6.806;2023-03-24T01:53:50;99671.13;;;11.16;90.13
26443;BME280;5563;52.296;6.806;2023-03-24T01:56:27;99661.81;;;11.20;89.94
26443;BME280;5563;52.296;6.806;2023-03-24T01:59:01;99643.13;;;11.20;90.04
26443;BME280;5563;52.296;6.806;2023-03-24T02:01:36;99636.34;;;11.26;89.99
26443;BME280;5563;52.296;6.806;2023-03-24T02:04:05;99639.84;;;11.26;89.86
26443;BME280;5563;52.296;6.806;2023-03-24T02:06:42;99612.25;;;11.18;90.05
26443;BME280;5563;52.296;6.806;2023-03-24T02:09:11;99625.66;;;11.26;89.86
26443;BME280;5563;52.296;6.806;2023-03-24T02:11:45;99625.03;;;11.32;89.76
26443;BME280;5563;52.296;6.806;2023-03-24T02:14:12;99611.84;;;11.30;89.53
26443;BME280;5563;52.296;6.806;2023-03-24T02:17:17;99608.72;;;11.35;89.61
26443;BME280;5563;52.296;6.806;2023-03-24T02:22:52;99600.72;;;11.35;89.31
26443;BME280;5563;52.296;6.806;2023-03-24T02:31:05;99598.22;;;11.41;89.43
26443;BME280;5563;52.296;6.806;2023-03-24T02:42:49;99581.88;;;11.36;89.88
26443;BME280;5563;52.296;6.806;2023-03-24T02:45:35;99584.38;;;11.38;90.08
26443;BME280;5563;52.296;6.806;2023-03-24T02:48:44;99577.16;;;11.30;89.93
26443;BME280;5563;52.296;6.806;2023-03-24T02:52:14;99567.84;;;11.34;90.53
26443;BME280;5563;52.296;6.806;2023-03-24T02:54:41;99568.53;;;11.36;90.44
26443;BME280;5563;52.296;6.806;2023-03-24T02:57:23;99561.50;;;11.35;90.62
26443;BME280;5563;52.296;6.806;2023-03-24T03:02:45;99546.31;;;11.36;90.72
26443;BME280;5563;52.296;6.806;2023-03-24T03:05:26;99533.78;;;11.28;90.89
26443;BME280;5563;52.296;6.806;2023-03-24T03:07:57;99543.16;;;11.32;90.92
26443;BME280;5563;52.296;6.806;2023-03-24T03:10:36;99532.13;;;11.27;90.96
26443;BME280;5563;52.296;6.806;2023-03-24T03:13:23;99541.00;;;11.36;90.69
26443;BME280;5563;52.296;6.806;2023-03-24T03:16:06;99543.50;;;11.37;90.83
26443;BME280;5563;52.296;6.806;2023-03-24T03:18:57;99539.00;;;11.38;91.17
26443;BME280;5563;52.296;6.806;2023-03-24T03:21:37;99536.84;;;11.41;91.07
26443;BME280;5563;52.296;6.806;2023-03-24T03:24:17;99527.31;;;11.39;91.23
26443;BME280;5563;52.296;6.806;2023-03-24T03:27:02;99536.69;;;11.43;91.29
26443;BME280;5563;52.296;6.806;2023-03-24T03:29:37;99545.03;;;11.40;91.40
26443;BME280;5563;52.296;6.806;2023-03-24T03:32:16;99528.84;;;11.41;91.42
26443;BME280;5563;52.296;6.806;2023-03-24T03:34:49;99520.66;;;11.35;91.51
26443;BME280;5563;52.296;6.806;2023-03-24T03:37:57;99534.19;;;11.41;91.55
26443;BME280;5563;52.296;6.806;2023-03-24T03:40:31;99530.19;;;11.45;91.60
26443;BME280;5563;52.296;6.806;2023-03-24T03:43:07;99520.50;;;11.44;91.28
26443;BME280;5563;52.296;6.806;2023-03-24T03:45:34;99544.06;;;11.49;91.33
26443;BME280;5563;52.296;6.806;2023-03-24T03:48:09;99541.84;;;11.44;91.58
26443;BME280;5563;52.296;6.806;2023-03-24T03:50:42;99546.69;;;11.41;91.53
26443;BME280;5563;52.296;6.806;2023-03-24T03:53:38;99541.72;;;11.46;91.62
26443;BME280;5563;52.296;6.806;2023-03-24T03:56:17;99542.38;;;11.48;91.28
26443;BME280;5563;52.296;6.806;2023-03-24T03:58:50;99555.25;;;11.52;91.30
26443;BME280;5563;52.296;6.806;2023-03-24T04:01:21;99547.06;;;11.54;90.94
26443;BME280;5563;52.296;6.806;2023-03-24T04:04:09;99577.13;;;11.56;90.64
26443;BME280;5563;52.296;6.806;2023-03-24T04:10:14;99607.09;;;11.50;90.33
26443;BME280;5563;52.296;6.806;2023-03-24T04:13:20;99609.25;;;11.46;89.65
26443;BME280;5563;52.296;6.806;2023-03-24T04:18:44;99620.38;;;11.34;89.63
26443;BME280;5563;52.296;6.806;2023-03-24T04:24:53;99645.81;;;11.20;89.05
26443;BME280;5563;52.296;6.806;2023-03-24T04:27:28;99659.63;;;11.16;88.94
26443;BME280;5563;52.296;6.806;2023-03-24T04:30:14;99662.75;;;11.11;88.50
26443;BME280;5563;52.296;6.806;2023-03-24T04:32:58;99666.03;;;11.05;88.77
26443;BME280;5563;52.296;6.806;2023-03-24T04:35:40;99678.69;;;11.03;88.79
26443;BME280;5563;52.296;6.806;2023-03-24T04:38:24;99672.31;;;10.96;88.05
26443;BME280;5563;52.296;6.806;2023-03-24T04:40:59;99671.25;;;10.89;87.52
26443;BME280;5563;52.296;6.806;2023-03-24T04:43:41;99675.81;;;10.79;87.45
26443;BME280;5563;52.296;6.806;2023-03-24T04:46:08;99688.63;;;10.75;86.81
26443;BME280;5563;52.296;6.806;2023-03-24T04:48:49;99693.72;;;10.69;86.57
26443;BME280;5563;52.296;6.806;2023-03-24T04:51:24;99691.13;;;10.59;86.08
26443;BME280;5563;52.296;6.806;2023-03-24T04:53:52;99699.22;;;10.50;85.67
26443;BME280;5563;52.296;6.806;2023-03-24T04:56:29;99702.09;;;10.39;85.25
26443;BME280;5563;52.296;6.806;2023-03-24T04:59:04;99707.47;;;10.29;84.78
26443;BME280;5563;52.296;6.806;2023-03-24T05:01:32;99726.28;;;10.28;85.06
26443;BME280;5563;52.296;6.806;2023-03-24T05:04:09;99736.16;;;10.18;84.88
26443;BME280;5563;52.296;6.806;2023-03-24T05:06:37;99745.81;;;10.19;84.72
26443;BME280;5563;52.296;6.806;2023-03-24T05:09:16;99745.72;;;10.11;84.25
26443;BME280;5563;52.296;6.806;2023-03-24T05:11:44;99751.84;;;10.11;84.30
26443;BME280;5563;52.296;6.806;2023-03-24T05:14:18;99749.78;;;10.05;84.35
26443;BME280;5563;52.296;6.806;2023-03-24T05:16:52;99763.38;;;10.02;84.32
26443;BME280;5563;52.296;6.806;2023-03-24T05:19:25;99763.81;;;9.98;84.14
26443;BME280;5563;52.296;6.806;2023-03-24T05:21:52;99772.91;;;9.95;84.29
26443;BME280;5563;52.296;6.806;2023-03-24T05:24:20;99780.22;;;9.93;83.74
26443;BME280;5563;52.296;6.806;2023-03-24T05:26:54;99792.44;;;9.86;84.28
26443;BME280;5563;52.296;6.806;2023-03-24T05:29:28;99786.13;;;9.87;84.43
26443;BME280;5563;52.296;6.806;2023-03-24T05:31:55;99800.56;;;9.84;84.30
26443;BME280;5563;52.296;6.806;2023-03-24T05:34:29;99798.19;;;9.81;84.39
26443;BME280;5563;52.296;6.806;2023-03-24T05:36:56;99806.31;;;9.80;84.31
26443;BME280;5563;52.296;6.806;2023-03-24T05:39:24;99813.63;;;9.78;84.58
26443;BME280;5563;52.296;6.806;2023-03-24T05:41:58;99813.22;;;9.73;84.70
26443;BME280;5563;52.296;6.806;2023-03-24T05:44:25;99804.66;;;9.69;84.84
26443;BME280;5563;52.296;6.806;2023-03-24T05:46:59;99815.47;;;9.68;84.50
26443;BME280;5563;52.296;6.806;2023-03-24T05:49:34;99810.41;;;9.65;84.37
26443;BME280;5563;52.296;6.806;2023-03-24T05:52:09;99830.72;;;9.66;84.46
26443;BME280;5563;52.296;6.806;2023-03-24T05:54:36;99835.22;;;9.65;83.86
26443;BME280;5563;52.296;6.806;2023-03-24T05:57:15;99841.09;;;9.69;83.70
26443;BME280;5563;52.296;6.806;2023-03-24T05:59:48;99849.38;;;9.66;83.94
26443;BME280;5563;52.296;6.806;2023-03-24T06:02:25;99849.38;;;9.66;83.45
26443;BME280;5563;52.296;6.806;2023-03-24T06:04:52;99861.69;;;9.67;83.30
26443;BME280;5563;52.296;6.806;2023-03-24T06:07:26;99857.34;;;9.66;83.20
26443;BME280;5563;52.296;6.806;2023-03-24T06:09:56;99874.97;;;9.67;83.40
26443;BME280;5563;52.296;6.806;2023-03-24T06:12:31;99876.13;;;9.64;82.45
26443;BME280;5563;52.296;6.806;2023-03-24T06:15:06;99857.19;;;9.67;80.72
26443;BME280;5563;52.296;6.806;2023-03-24T06:17:33;99877.66;;;9.67;80.38
26443;BME280;5563;52.296;6.806;2023-03-24T06:20:08;99883.13;;;9.65;81.29
26443;BME280;5563;52.296;6.806;2023-03-24T06:22:48;99888.44;;;9.65;81.17
26443;BME280;5563;52.296;6.806;2023-03-24T06:25:21;99887.72;;;9.63;81.07
26443;BME280;5563;52.296;6.806;2023-03-24T06:27:51;99889.28;;;9.66;81.50
26443;BME280;5563;52.296;6.806;2023-03-24T06:30:27;99891.09;;;9.65;81.86
26443;BME280;5563;52.296;6.806;2023-03-24T06:32:55;99894.47;;;9.67;81.71
26443;BME280;5563;52.296;6.806;2023-03-24T06:35:31;99896.28;;;9.67;81.36
26443;BME280;5563;52.296;6.806;2023-03-24T06:37:59;99888.72;;;9.62;81.62
26443;BME280;5563;52.296;6.806;2023-03-24T06:40:33;99900.06;;;9.64;81.13
26443;BME280;5563;52.296;6.806;2023-03-24T06:43:01;99904.25;;;9.67;80.96
26443;BME280;5563;52.296;6.806;2023-03-24T06:45:44;99904.53;;;9.64;81.27
26443;BME280;5563;52.296;6.806;2023-03-24T06:48:25;99904.97;;;9.69;81.49
26443;BME280;5563;52.296;6.806;2023-03-24T06:51:00;99910.84;;;9.72;80.93
26443;BME280;5563;52.296;6.806;2023-03-24T06:53:27;99900.06;;;9.64;81.19
26443;BME280;5563;52.296;6.806;2023-03-24T06:56:00;99922.34;;;9.73;80.60
26443;BME280;5563;52.296;6.806;2023-03-24T06:58:35;99918.69;;;9.74;80.60
26443;BME280;5563;52.296;6.806;2023-03-24T07:01:09;99917.03;;;9.73;80.79
26443;BME280;5563;52.296;6.806;2023-03-24T07:03:38;99937.63;;;9.80;80.44
26443;BME280;5563;52.296;6.806;2023-03-24T07:06:12;99927.13;;;9.79;80.37
26443;BME280;5563;52.296;6.806;2023-03-24T07:08:45;99933.41;;;9.78;80.40
26443;BME280;5563;52.296;6.806;2023-03-24T07:11:20;99939.56;;;9.78;80.68
26443;BME280;5563;52.296;6.806;2023-03-24T07:13:54;99947.56;;;9.78;80.43
26443;BME280;5563;52.296;6.806;2023-03-24T07:16:21;99950.22;;;9.78;80.67
26443;BME280;5563;52.296;6.806;2023-03-24T07:18:56;99950.38;;;9.77;80.70
26443;BME280;5563;52.296;6.806;2023-03-24T07:21:23;99946.84;;;9.76;80.82
26443;BME280;5563;52.296;6.806;2023-03-24T07:23:58;99952.88;;;9.78;80.40
26443;BME280;5563;52.296;6.806;2023-03-24T07:26:28;99956.22;;;9.90;80.52
26443;BME280;5563;52.296;6.806;2023-03-24T07:29:02;99961.69;;;9.98;79.91
26443;BME280;5563;52.296;6.806;2023-03-24T07:31:30;99959.03;;;9.98;79.80
26443;BME280;5563;52.296;6.806;2023-03-24T07:34:09;99966.75;;;10.01;79.68
26443;BME280;5563;52.296;6.806;2023-03-24T07:36:38;99963.94;;;10.03;80.04
26443;BME280;5563;52.296;6.806;2023-03-24T07:39:11;99964.22;;;10.00;79.46
26443;BME280;5563;52.296;6.806;2023-03-24T07:41:39;99959.75;;;10.00;79.50
26443;BME280;5563;52.296;6.806;2023-03-24T07:44:14;99964.47;;;10.06;79.41
26443;BME280;5563;52.296;6.806;2023-03-24T07:46:48;99973.91;;;10.10;79.93
26443;BME280;5563;52.296;6.806;2023-03-24T07:49:21;99977.13;;;10.14;79.38
26443;BME280;5563;52.296;6.806;2023-03-24T07:51:49;99970.00;;;10.14;78.91
26443;BME280;5563;52.296;6.806;2023-03-24T07:54:22;99955.41;;;10.09;78.76
26443;BME280;5563;52.296;6.806;2023-03-24T07:56:49;99973.06;;;10.19;78.25
26443;BME280;5563;52.296;6.806;2023-03-24T07:59:16;99971.09;;;10.21;78.77
26443;BME280;5563;52.296;6.806;2023-03-24T08:01:51;99971.38;;;10.28;78.53
26443;BME280;5563;52.296;6.806;2023-03-24T08:04:23;99980.63;;;10.33;78.30
26443;BME280;5563;52.296;6.806;2023-03-24T08:06:57;99982.97;;;10.36;77.38
26443;BME280;5563;52.296;6.806;2023-03-24T08:09:25;99988.03;;;10.39;77.16
26443;BME280;5563;52.296;6.806;2023-03-24T08:11:59;99987.59;;;10.44;77.09
26443;BME280;5563;52.296;6.806;2023-03-24T08:14:41;99981.56;;;10.42;76.88
26443;BME280;5563;52.296;6.806;2023-03-24T08:17:14;99992.22;;;10.51;76.97
26443;BME280;5563;52.296;6.806;2023-03-24T08:19:41;100003.13;;;10.58;77.32
26443;BME280;5563;52.296;6.806;2023-03-24T08:22:26;100004.69;;;10.60;76.76
26443;BME280;5563;52.296;6.806;2023-03-24T08:24:53;100011.53;;;10.63;76.43
26443;BME280;5563;52.296;6.806;2023-03-24T08:27:26;100002.84;;;10.61;75.08
26443;BME280;5563;52.296;6.806;2023-03-24T08:29:53;100012.94;;;10.67;74.54
26443;BME280;5563;52.296;6.806;2023-03-24T08:32:27;99992.59;;;10.66;73.52
26443;BME280;5563;52.296;6.806;2023-03-24T08:34:56;99996.91;;;10.76;73.85
26443;BME280;5563;52.296;6.806;2023-03-24T08:37:30;100014.13;;;10.92;73.51
26443;BME280;5563;52.296;6.806;2023-03-24T08:39:57;100010.47;;;10.93;73.17
26443;BME280;5563;52.296;6.806;2023-03-24T08:42:39;100008.53;;;10.85;72.85
26443;BME280;5563;52.296;6.806;2023-03-24T08:45:10;100025.88;;;10.99;72.60
26443;BME280;5563;52.296;6.806;2023-03-24T08:47:44;100031.59;;;11.04;71.96
26443;BME280;5563;52.296;6.806;2023-03-24T08:50:22;100031.03;;;11.10;72.56
26443;BME280;5563;52.296;6.806;2023-03-24T08:52:57;100031.72;;;11.12;72.72
26443;BME280;5563;52.296;6.806;2023-03-24T08:55:24;100029.06;;;11.12;72.00
26443;BME280;5563;52.296;6.806;2023-03-24T08:57:59;100043.38;;;11.11;71.19
26443;BME280;5563;52.296;6.806;2023-03-24T09:00:32;100033.41;;;11.13;71.56
26443;BME280;5563;52.296;6.806;2023-03-24T09:03:00;100040.38;;;11.23;72.28
26443;BME280;5563;52.296;6.806;2023-03-24T09:05:33;100038.25;;;11.27;71.34
26443;BME280;5563;52.296;6.806;2023-03-24T09:08:11;100041.84;;;11.35;70.23
26443;BME280;5563;52.296;6.806;2023-03-24T09:10:45;100032.47;;;11.31;70.64
26443;BME280;5563;52.296;6.806;2023-03-24T09:13:12;100043.84;;;11.33;70.89
26443;BME280;5563;52.296;6.806;2023-03-24T09:16:07;100051.94;;;11.41;70.46
26443;BME280;5563;52.296;6.806;2023-03-24T09:18:34;100034.28;;;11.40;69.70
26443;BME280;5563;52.296;6.806;2023-03-24T09:21:07;100035.50;;;11.46;70.20
26443;BME280;5563;52.296;6.806;2023-03-24T09:23:41;100042.13;;;11.69;68.61
26443;BME280;5563;52.296;6.806;2023-03-24T09:26:14;100045.28;;;11.82;67.69
26443;BME280;5563;52.296;6.806;2023-03-24T09:28:41;100046.81;;;11.84;67.15
26443;BME280;5563;52.296;6.806;2023-03-24T09:31:14;100050.88;;;12.06;68.00
26443;BME280;5563;52.296;6.806;2023-03-24T09:33:47;100043.13;;;12.38;66.53
26443;BME280;5563;52.296;6.806;2023-03-24T09:36:14;100041.09;;;12.58;65.10
26443;BME280;5563;52.296;6.806;2023-03-24T09:38:48;100036.97;;;12.63;66.08
26443;BME280;5563;52.296;6.806;2023-03-24T09:41:17;100042.31;;;12.63;64.29
26443;BME280;5563;52.296;6.806;2023-03-24T09:44:33;100057.19;;;12.40;66.47
26443;BME280;5563;52.296;6.806;2023-03-24T09:47:11;100045.78;;;12.38;65.84
26443;BME280;5563;52.296;6.806;2023-03-24T09:49:55;100033.19;;;12.48;64.61
26443;BME280;5563;52.296;6.806;2023-03-24T09:52:28;100044.34;;;12.44;64.29
26443;BME280;5563;52.296;6.806;2023-03-24T09:55:05;100069.38;;;12.60;64.30
26443;BME280;5563;52.296;6.806;2023-03-24T09:57:39;100060.44;;;12.69;62.29
26443;BME280;5563;52.296;6.806;2023-03-24T10:00:28;100070.03;;;12.80;61.66
26443;BME280;5563;52.296;6.806;2023-03-24T10:03:14;100058.56;;;12.87;61.90
26443;BME280;5563;52.296;6.806;2023-03-24T10:06:00;100065.63;;;12.96;60.74
26443;BME280;5563;52.296;6.806;2023-03-24T10:08:48;100069.66;;;13.00;60.59
26443;BME280;5563;52.296;6.806;2023-03-24T10:12:11;100069.50;;;13.28;59.80
26443;BME280;5563;52.296;6.806;2023-03-24T10:14:43;100069.47;;;13.53;58.51
26443;BME280;5563;52.296;6.806;2023-03-24T10:20:32;100056.13;;;14.43;58.78
26443;BME280;5563;52.296;6.806;2023-03-24T10:28:52;100065.84;;;14.52;54.39
26443;BME280;5563;52.296;6.806;2023-03-24T10:31:34;100072.22;;;14.59;55.39
26443;BME280;5563;52.296;6.806;2023-03-24T10:34:02;100066.69;;;14.45;55.56
26443;BME280;5563;52.296;6.806;2023-03-24T10:36:38;100069.19;;;14.46;56.30
26443;BME280;5563;52.296;6.806;2023-03-24T10:39:15;100091.97;;;14.42;56.24
26443;BME280;5563;52.296;6.806;2023-03-24T10:42:12;100077.91;;;14.40;55.67
26443;BME280;5563;52.296;6.806;2023-03-24T10:44:47;100075.75;;;14.60;55.32
26443;BME280;5563;52.296;6.806;2023-03-24T10:47:24;100073.22;;;14.82;55.78
26443;BME280;5563;52.296;6.806;2023-03-24T10:50:01;100063.78;;;14.94;54.76
26443;BME280;5563;52.296;6.806;2023-03-24T10:52:46;100071.41;;;15.38;53.36
26443;BME280;5563;52.296;6.806;2023-03-24T10:55:17;100073.59;;;15.34;53.05
26443;BME280;5563;52.296;6.806;2023-03-24T10:57:55;100085.72;;;15.14;52.01
26443;BME280;5563;52.296;6.806;2023-03-24T11:00:28;100086.09;;;14.87;54.25
26443;BME280;5563;52.296;6.806;2023-03-24T11:03:11;100077.41;;;14.53;55.48
26443;BME280;5563;52.296;6.806;2023-03-24T11:05:46;100076.06;;;14.49;55.33
26443;BME280;5563;52.296;6.806;2023-03-24T11:08:32;100077.25;;;14.38;55.76
26443;BME280;5563;52.296;6.806;2023-03-24T11:10:59;100095.19;;;14.54;53.58
26443;BME280;5563;52.296;6.806;2023-03-24T11:13:33;100087.88;;;14.14;54.20
26443;BME280;5563;52.296;6.806;2023-03-24T11:16:10;100110.38;;;13.71;55.73
26443;BME280;5563;52.296;6.806;2023-03-24T11:21:20;100102.25;;;13.47;56.65
26443;BME280;5563;52.296;6.806;2023-03-24T11:23:58;100110.03;;;13.66;56.02
26443;BME280;5563;52.296;6.806;2023-03-24T11:26:35;100109.69;;;13.69;54.83
26443;BME280;5563;52.296;6.806;2023-03-24T11:29:17;100102.31;;;13.63;54.23
26443;BME280;5563;52.296;6.806;2023-03-24T11:31:53;100113.41;;;13.43;54.45
26443;BME280;5563;52.296;6.806;2023-03-24T11:34:24;100113.47;;;13.17;56.00
26443;BME280;5563;52.296;6.806;2023-03-24T11:37:18;100116.97;;;13.18;56.14
26443;BME280;5563;52.296;6.806;2023-03-24T11:42:32;100105.22;;;13.78;55.32
26443;BME280;5563;52.296;6.806;2023-03-24T11:45:20;100094.66;;;14.34;52.46
26443;BME280;5563;52.296;6.806;2023-03-24T11:48:04;100089.31;;;14.58;51.82
26443;BME280;5563;52.296;6.806;2023-03-24T11:50:37;100109.44;;;14.62;51.09
26443;BME280;5563;52.296;6.806;2023-03-24T11:53:22;100100.88;;;14.43;51.70
26443;BME280;5563;52.296;6.806;2023-03-24T11:56:01;100090.47;;;14.40;51.52
26443;BME280;5563;52.296;6.806;2023-03-24T11:58:45;100103.47;;;14.10;52.56
26443;BME280;5563;52.296;6.806;2023-03-24T12:09:51;100097.94;;;14.12;53.90
26443;BME280;5563;52.296;6.806;2023-03-24T12:12:28;100089.59;;;14.15;52.35
26443;BME280;5563;52.296;6.806;2023-03-24T12:20:33;100110.19;;;14.06;53.14
26443;BME280;5563;52.296;6.806;2023-03-24T12:23:39;100112.03;;;14.22;54.91
26443;BME280;5563;52.296;6.806;2023-03-24T12:26:31;100127.34;;;13.88;56.73
26443;BME280;5563;52.296;6.806;2023-03-24T12:35:32;100147.53;;;12.54;64.77
26443;BME280;5563;52.296;6.806;2023-03-24T12:40:58;100145.09;;;11.81;68.72
26443;BME280;5563;52.296;6.806;2023-03-24T12:43:46;100145.97;;;11.72;69.34
26443;BME280;5563;52.296;6.806;2023-03-24T12:46:37;100142.22;;;11.65;68.56
26443;BME280;5563;52.296;6.806;2023-03-24T12:52:44;100155.56;;;11.55;69.12
26443;BME280;5563;52.296;6.806;2023-03-24T12:55:47;100141.69;;;11.42;69.46
26443;BME280;5563;52.296;6.806;2023-03-24T12:58:43;100142.94;;;11.48;69.48
26443;BME280;5563;52.296;6.806;2023-03-24T13:01:38;100154.22;;;11.42;70.46
26443;BME280;5563;52.296;6.806;2023-03-24T13:06:52;100140.19;;;11.30;70.11
26443;BME280;5563;52.296;6.806;2023-03-24T13:09:51;100146.84;;;11.26;70.35
26443;BME280;5563;52.296;6.806;2023-03-24T13:12:25;100150.63;;;11.14;71.49
26443;BME280;5563;52.296;6.806;2023-03-24T13:15:06;100147.41;;;11.11;72.91
26443;BME280;5563;52.296;6.806;2023-03-24T13:20:51;100135.09;;;11.46;73.66
26443;BME280;5563;52.296;6.806;2023-03-24T13:29:06;100145.69;;;12.02;71.01
26443;BME280;5563;52.296;6.806;2023-03-24T13:31:44;100139.44;;;11.84;69.37
26443;BME280;5563;52.296;6.806;2023-03-24T13:34:29;100129.03;;;11.54;69.90
26443;BME280;5563;52.296;6.806;2023-03-24T13:37:10;100140.47;;;11.37;69.42
26443;BME280;5563;52.296;6.806;2023-03-24T13:39:42;100140.75;;;11.34;70.84
26443;BME280;5563;52.296;6.806;2023-03-24T13:42:44;100144.28;;;11.34;69.07
26443;BME280;5563;52.296;6.806;2023-03-24T13:45:41;100144.81;;;11.38;69.11
26443;BME280;5563;52.296;6.806;2023-03-24T13:48:36;100129.91;;;11.45;69.71
26443;BME280;5563;52.296;6.806;2023-03-24T13:51:34;100126.28;;;11.73;69.51
26443;BME280;5563;52.296;6.806;2023-03-24T13:57:06;100131.63;;;11.73;69.10
26443;BME280;5563;52.296;6.806;2023-03-24T13:59:56;100137.00;;;11.63;69.98
26443;BME280;5563;52.296;6.806;2023-03-24T14:02:41;100127.63;;;11.50;69.62
26443;BME280;5563;52.296;6.806;2023-03-24T14:07:50;100124.31;;;11.38;69.67
26443;BME280;5563;52.296;6.806;2023-03-24T14:15:41;100138.69;;;11.28;70.50
26443;BME280;5563;52.296;6.806;2023-03-24T14:21:02;100129.84;;;11.18;71.67
26443;BME280;5563;52.296;6.806;2023-03-24T14:23:48;100138.53;;;11.29;71.90
26443;BME280;5563;52.296;6.806;2023-03-24T14:28:53;100141.22;;;11.20;72.13
26443;BME280;5563;52.296;6.806;2023-03-24T14:31:33;100126.63;;;11.14;73.48
26443;BME280;5563;52.296;6.806;2023-03-24T14:34:12;100135.78;;;11.12;74.09
26443;BME280;5563;52.296;6.806;2023-03-24T14:36:56;100142.63;;;11.14;74.04
26443;BME280;5563;52.296;6.806;2023-03-24T14:39:34;100146.44;;;11.12;74.29
26443;BME280;5563;52.296;6.806;2023-03-24T14:45:53;100132.28;;;11.02;74.32
26443;BME280;5563;52.296;6.806;2023-03-24T14:51:55;100139.88;;;10.97;74.92
26443;BME280;5563;52.296;6.806;2023-03-24T14:57:07;100135.94;;;11.01;74.61
26443;BME280;5563;52.296;6.806;2023-03-24T14:59:51;100140.56;;;10.99;74.32
26443;BME280;5563;52.296;6.806;2023-03-24T15:02:40;100145.06;;;10.98;73.64
26443;BME280;5563;52.296;6.806;2023-03-24T15:08:01;100123.19;;;10.85;75.67
26443;BME280;5563;52.296;6.806;2023-03-24T15:10:53;100135.28;;;10.79;77.46
26443;BME280;5563;52.296;6.806;2023-03-24T15:13:36;100123.09;;;10.58;78.15
26443;BME280;5563;52.296;6.806;2023-03-24T15:18:49;100109.91;;;10.28;80.75
26443;BME280;5563;52.296;6.806;2023-03-24T15:21:48;100120.53;;;10.18;81.15
26443;BME280;5563;52.296;6.806;2023-03-24T15:29:42;100107.66;;;10.14;81.93
26443;BME280;5563;52.296;6.806;2023-03-24T15:32:20;100102.88;;;10.17;81.45
26443;BME280;5563;52.296;6.806;2023-03-24T15:34:59;100097.00;;;10.42;80.40
26443;BME280;5563;52.296;6.806;2023-03-24T15:37:40;100111.38;;;11.07;78.17
26443;BME280;5563;52.296;6.806;2023-03-24T15:43:03;100095.16;;;11.18;78.21
26443;BME280;5563;52.296;6.806;2023-03-24T15:45:35;100087.59;;;11.50;76.31
26443;BME280;5563;52.296;6.806;2023-03-24T15:48:24;100083.84;;;11.97;75.45
26443;BME280;5563;52.296;6.806;2023-03-24T15:51:01;100089.34;;;12.13;72.77
26443;BME280;5563;52.296;6.806;2023-03-24T15:53:45;100085.69;;;12.14;72.14
26443;BME280;5563;52.296;6.806;2023-03-24T15:56:29;100092.41;;;12.18;72.16
26443;BME280;5563;52.296;6.806;2023-03-24T16:01:39;100080.38;;;12.05;71.09
26443;BME280;5563;52.296;6.806;2023-03-24T16:04:13;100082.47;;;11.93;71.31
26443;BME280;5563;52.296;6.806;2023-03-24T16:06:51;100081.44;;;11.94;72.14
26443;BME280;5563;52.296;6.806;2023-03-24T16:09:34;100087.69;;;11.85;71.34
26443;BME280;5563;52.296;6.806;2023-03-24T16:12:10;100083.41;;;11.74;72.18